This is the latest recevied weather packets stored in our database for station/object JE3XST-13. If no packets are shown the sender has not sent any weather packets the latest 10 day(s).
| Time | Temp. | Humidity | Pressure | Rain* | Wind** | Luminosity | Snow |
|---|---|---|---|---|---|---|---|
| 1777594528 | 16.67° C | 95% | 1000.5 hPa | 2.54 mm | - | - | - |
| 1777592727 | 16.67° C | 94% | 1000.1 hPa | 2.29 mm | - | - | - |
| 1777590926 | 16.67° C | 94% | 1000.1 hPa | 3.05 mm | - | - | - |
| 1777589128 | 16.11° C | 93% | 1000.7 hPa | 1.78 mm | - | - | - |
| 1777587328 | 16.11° C | 94% | 1001.5 hPa | 2.03 mm | - | - | - |
| 1777585528 | 16.11° C | 92% | 1001.6 hPa | 4.32 mm | - | - | - |
| 1777583728 | 16.11° C | 92% | 1002.7 hPa | 6.6 mm | - | - | - |
| 1777581927 | 16.11° C | 91% | 1003.1 hPa | 7.11 mm | - | - | - |
| 1777580126 | 16.11° C | 89% | 1003.6 hPa | 3.3 mm | - | - | - |
| 1777578328 | 16.67° C | 86% | 1004.1 hPa | 0.25 mm | - | - | - |
| 1777576527 | 16.67° C | 87% | 1004.5 hPa | 0.51 mm | - | - | - |
| 1777574727 | 16.11° C | 90% | 1005.4 hPa | 1.78 mm | - | - | - |
| 1777572926 | 16.11° C | 89% | 1006.1 hPa | 1.27 mm | - | - | - |
| 1777571128 | 16.67° C | 86% | 1006.9 hPa | 0 mm | - | - | - |
| 1777569329 | 16.67° C | 84% | 1007 hPa | 0 mm | - | - | - |
| 1777567528 | 16.67° C | 86% | 1007.4 hPa | 0.25 mm | - | - | - |
| 1777565727 | 16.11° C | 88% | 1008.1 hPa | 1.27 mm | - | - | - |
| 1777563926 | 15.56° C | 90% | 1008.9 hPa | 0 mm | - | - | - |
| 1777562128 | 15° C | 91% | 1010.3 hPa | 0 mm | - | - | - |
| 1777560327 | 15° C | 91% | 1011 hPa | 6.1 mm | - | - | - |
| 1777558527 | 15.56° C | 88% | 1011.9 hPa | 2.79 mm | - | - | - |
| 1777556726 | 16.67° C | 82% | 1012.4 hPa | 0.25 mm | - | - | - |
| 1777554926 | 16.11° C | 81% | 1011.9 hPa | 0 mm | - | - | - |
| 1777553127 | 16.11° C | 83% | 1012.6 hPa | 0 mm | - | - | - |
| 1777551327 | 15.56° C | 85% | 1013.4 hPa | 0 mm | - | - | - |
* Rain latest hour (hover to see other rain measurements)
** Current wind speed in m/s (hover to see current wind gust speed)